Time;durP1;ratioP1;P1;durP2;ratioP2;P2;SDS_P1;SDS_P2;PMS_P1;PMS_P2;Temp;Humidity;BMP_temperature;BMP_pressure;BME280_temperature;BME280_humidity;BME280_pressure;Samples;Min_cycle;Max_cycle;Signal;HPM_P1;HPM_P2
2021/07/17 00:01:42;;;;;;;9.17;7.67;;;;;;;19.37;71.68;100082.70;154513;1098;103116;-76
2021/07/17 00:04:47;;;;;;;9.93;7.77;;;;;;;19.31;71.74;100086.27;154566;1093;103339;-77
2021/07/17 00:07:52;;;;;;;10.97;7.93;;;;;;;19.25;71.62;100092.54;154604;1098;103517;-77
2021/07/17 00:10:57;;;;;;;10.27;6.77;;;;;;;19.11;71.92;100089.88;154569;1093;103219;-76
2021/07/17 00:14:03;;;;;;;8.60;6.87;;;;;;;19.15;71.96;100085.70;154635;1098;103192;-78
2021/07/17 00:17:08;;;;;;;12.40;9.30;;;;;;;19.17;71.89;100091.73;154640;1098;103128;-77
2021/07/17 00:20:15;;;;;;;11.93;8.70;;;;;;;19.17;72.06;100080.08;154567;1098;103279;-74
2021/07/17 00:23:20;;;;;;;13.10;8.50;;;;;;;19.16;71.94;100084.64;154763;1098;103151;-72
2021/07/17 00:26:25;;;;;;;9.70;8.45;;;;;;;19.15;71.85;100087.55;154556;1093;103178;-75
2021/07/17 00:29:30;;;;;;;10.43;8.60;;;;;;;19.09;71.72;100089.27;154555;1093;103135;-75
2021/07/17 00:32:35;;;;;;;12.77;9.37;;;;;;;19.07;71.73;100088.62;154158;1098;103199;-74
2021/07/17 00:35:40;;;;;;;14.90;9.63;;;;;;;18.99;71.74;100088.86;154557;1093;103214;-74
2021/07/17 00:38:45;;;;;;;10.70;9.03;;;;;;;18.74;71.94;100086.80;154618;1093;103192;-72
2021/07/17 00:41:53;;;;;;;13.43;9.07;;;;;;;18.59;72.32;100078.95;154567;1093;103110;-73
2021/07/17 00:44:58;;;;;;;11.80;9.47;;;;;;;18.57;72.45;100080.17;154620;1098;103118;-73
2021/07/17 00:48:03;;;;;;;12.65;8.65;;;;;;;18.58;72.57;100087.25;154660;1098;103211;-73
2021/07/17 00:51:08;;;;;;;10.33;8.10;;;;;;;18.67;72.45;100099.52;154622;1098;103198;-74
2021/07/17 00:54:17;;;;;;;9.77;8.37;;;;;;;18.70;72.21;100100.95;154560;1093;103134;-75
2021/07/17 00:57:24;;;;;;;11.43;8.87;;;;;;;18.62;72.36;100093.90;154538;1093;103139;-75
2021/07/17 01:00:30;;;;;;;10.40;8.83;;;;;;;18.60;72.54;100101.38;154581;1098;103112;-74
2021/07/17 01:03:35;;;;;;;13.10;9.10;;;;;;;18.63;72.75;100107.20;154574;1098;103190;-72
2021/07/17 01:06:41;;;;;;;9.43;7.77;;;;;;;18.65;72.47;100098.89;154612;1094;103346;-73
2021/07/17 01:09:46;;;;;;;9.80;7.67;;;;;;;18.69;72.41;100105.53;154608;1098;103192;-72
2021/07/17 01:12:52;;;;;;;10.33;7.50;;;;;;;18.72;72.39;100115.91;154634;1098;103184;-71
2021/07/17 01:15:58;;;;;;;13.60;8.70;;;;;;;18.76;72.37;100113.63;154563;1098;103129;-73
2021/07/17 01:19:03;;;;;;;12.50;8.77;;;;;;;18.75;72.33;100117.38;154441;1098;103154;-73
2021/07/17 01:22:08;;;;;;;12.47;9.10;;;;;;;18.71;72.33;100108.86;154041;1101;103253;-72
2021/07/17 01:25:16;;;;;;;10.80;7.77;;;;;;;18.64;72.46;100102.63;154084;1093;103138;-73
2021/07/17 01:28:21;;;;;;;10.33;7.77;;;;;;;18.64;72.60;100102.63;153959;1101;103131;-74
2021/07/17 01:31:28;;;;;;;10.53;8.07;;;;;;;18.66;72.31;100095.14;154051;1101;103228;-76
2021/07/17 01:34:33;;;;;;;10.43;7.50;;;;;;;18.52;72.59;100083.52;153981;1093;103520;-74
2021/07/17 01:37:38;;;;;;;12.27;8.87;;;;;;;18.49;72.92;100083.92;153921;1101;103204;-74
2021/07/17 01:40:46;;;;;;;14.40;9.93;;;;;;;18.52;73.03;100093.50;153965;1101;103209;-74
2021/07/17 01:43:55;;;;;;;10.30;8.03;;;;;;;18.52;72.83;100088.92;153942;1093;103193;-75
2021/07/17 01:47:00;;;;;;;10.27;7.27;;;;;;;18.50;72.73;100091.00;153914;1101;103119;-72
2021/07/17 01:50:06;;;;;;;9.23;7.67;;;;;;;18.52;72.82;100090.80;153921;1101;103097;-73
2021/07/17 01:53:13;;;;;;;9.33;7.70;;;;;;;18.55;72.69;100087.66;153971;1093;103230;-74
2021/07/17 01:56:18;;;;;;;12.23;8.67;;;;;;;18.53;72.70;100079.76;153950;1101;103160;-73
2021/07/17 01:59:23;;;;;;;14.63;9.03;;;;;;;18.52;72.83;100083.52;154006;1101;103225;-73
2021/07/17 02:02:28;;;;;;;12.37;8.37;;;;;;;18.52;72.91;100090.80;153934;1101;103221;-74
2021/07/17 02:05:33;;;;;;;11.07;8.20;;;;;;;18.55;73.11;100091.22;153972;1093;103161;-76
2021/07/17 02:08:41;;;;;;;13.10;9.13;;;;;;;18.59;72.88;100100.56;153972;1093;103233;-73
2021/07/17 02:11:46;;;;;;;17.20;11.27;;;;;;;18.65;73.20;100101.59;153970;1093;103230;-73
2021/07/17 02:14:52;;;;;;;20.63;12.53;;;;;;;18.64;73.20;100094.52;153954;1101;103224;-73
2021/07/17 02:17:57;;;;;;;17.83;12.30;;;;;;;18.56;73.40;100084.75;153972;1101;103576;-74
2021/07/17 02:21:03;;;;;;;15.25;10.70;;;;;;;18.57;73.41;100086.43;153975;1093;103116;-72
2021/07/17 02:24:09;;;;;;;18.23;11.13;;;;;;;18.59;73.40;100088.90;154026;1094;103289;-73
2021/07/17 02:27:14;;;;;;;16.30;11.15;;;;;;;18.52;73.41;100077.30;153952;1101;103205;-74
2021/07/17 02:30:20;;;;;;;18.17;12.03;;;;;;;18.28;74.05;100070.64;153903;1101;103113;-74
2021/07/17 02:33:25;;;;;;;17.90;13.95;;;;;;;18.11;75.20;100060.27;153999;1101;103144;-76
2021/07/17 02:36:30;;;;;;;13.07;11.07;;;;;;;18.10;75.48;100055.07;153933;1101;103107;-75
2021/07/17 02:39:35;;;;;;;13.50;10.40;;;;;;;18.20;75.62;100072.50;153933;1101;103181;-75
2021/07/17 02:42:40;;;;;;;12.90;10.43;;;;;;;18.39;75.58;100078.13;153972;1101;103157;-76
2021/07/17 02:45:45;;;;;;;15.03;10.43;;;;;;;18.58;75.49;100081.84;153941;1093;103113;-74
2021/07/17 02:48:50;;;;;;;14.23;12.07;;;;;;;18.70;75.46;100074.75;154035;1101;103243;-74
2021/07/17 02:51:55;;;;;;;14.83;11.97;;;;;;;18.80;75.63;100080.60;153955;1101;103467;-75
2021/07/17 02:55:01;;;;;;;15.63;11.30;;;;;;;18.90;75.72;100079.31;153931;1101;103234;-75
2021/07/17 02:58:06;;;;;;;13.63;11.03;;;;;;;19.01;75.75;100081.36;153951;1101;103144;-72
2021/07/17 03:01:11;;;;;;;14.23;12.40;;;;;;;19.13;75.83;100073.41;153846;1101;103115;-72
2021/07/17 03:04:15;;;;;;;15.53;12.97;;;;;;;19.23;75.92;100076.52;153877;1093;103147;-72
2021/07/17 03:07:20;;;;;;;17.87;13.37;;;;;;;19.23;75.96;100088.16;153915;1101;103196;-73
2021/07/17 03:10:26;;;;;;;16.13;13.70;;;;;;;19.17;76.54;100085.49;153942;1094;103260;-72
2021/07/17 03:13:30;;;;;;;17.40;13.97;;;;;;;19.10;76.82;100085.50;153955;1093;103100;-72
2021/07/17 03:16:37;;;;;;;16.97;14.77;;;;;;;19.10;76.92;100090.91;154045;1093;103620;-73
2021/07/17 03:19:42;;;;;;;12.70;11.40;;;;;;;19.22;76.72;100088.37;153975;1101;104060;-75
2021/07/17 03:22:47;;;;;;;14.10;11.27;;;;;;;19.39;76.86;100081.42;153939;1101;103144;-74
2021/07/17 03:25:53;;;;;;;15.40;13.70;;;;;;;19.43;76.95;100079.13;153936;1093;103288;-74
2021/07/17 03:28:58;;;;;;;15.73;13.23;;;;;;;19.40;77.16;100079.57;154047;1101;103220;-74
2021/07/17 03:32:04;;;;;;;13.87;12.03;;;;;;;19.41;77.09;100081.22;153954;1101;103192;-75
2021/07/17 03:35:10;;;;;;;14.60;12.30;;;;;;;19.41;77.32;100097.45;153929;1101;103222;-73
2021/07/17 03:38:15;;;;;;;14.00;11.67;;;;;;;19.56;77.47;100094.47;153979;1093;103131;-74
2021/07/17 03:41:20;;;;;;;15.53;12.50;;;;;;;19.71;77.44;100089.60;153973;1101;103199;-74
2021/07/17 03:44:27;;;;;;;16.00;11.97;;;;;;;19.81;77.29;100102.69;153951;1093;103128;-75
2021/07/17 03:47:32;;;;;;;14.23;12.10;;;;;;;19.96;77.11;100103.22;153926;1101;103128;-74
2021/07/17 03:50:38;;;;;;;14.27;12.23;;;;;;;20.05;77.25;100100.23;153954;1093;103557;-74
2021/07/17 03:53:42;;;;;;;20.20;12.37;;;;;;;20.09;77.22;100088.77;153969;1101;103123;-74
2021/07/17 03:56:47;;;;;;;21.17;12.67;;;;;;;20.13;77.28;100097.26;153988;1101;103250;-74
2021/07/17 03:59:52;;;;;;;13.67;11.83;;;;;;;20.04;77.84;100091.30;154025;1094;103142;-74
2021/07/17 04:02:57;;;;;;;13.83;11.50;;;;;;;19.92;77.66;100088.46;153975;1093;103120;-76
2021/07/17 04:06:02;;;;;;;17.17;13.20;;;;;;;19.88;77.97;100084.53;154014;1093;103139;-76
2021/07/17 04:09:07;;;;;;;14.40;12.90;;;;;;;19.85;78.09;100097.67;153994;1101;103186;-74
2021/07/17 04:12:12;;;;;;;13.40;11.90;;;;;;;19.91;78.34;100096.80;153975;1101;103190;-73
2021/07/17 04:15:18;;;;;;;14.27;12.00;;;;;;;20.02;78.21;100092.57;153989;1101;103186;-74
2021/07/17 04:18:22;;;;;;;11.70;9.80;;;;;;;20.15;78.37;100084.32;153910;1093;103150;-72
2021/07/17 04:21:28;;;;;;;12.13;10.80;;;;;;;20.39;78.06;100075.37;153953;1093;103129;-73
2021/07/17 04:24:33;;;;;;;14.97;12.23;;;;;;;20.57;77.81;100077.31;153967;1101;103125;-75
2021/07/17 04:27:38;;;;;;;15.53;12.17;;;;;;;20.65;77.87;100078.94;153936;1101;103300;-76
2021/07/17 04:30:43;;;;;;;17.33;11.93;;;;;;;20.74;77.88;100088.41;153988;1101;103515;-75
2021/07/17 04:33:48;;;;;;;14.97;12.07;;;;;;;20.77;77.79;100079.84;153928;1101;103129;-75
2021/07/17 04:36:53;;;;;;;15.00;11.97;;;;;;;20.66;77.69;100077.05;153989;1094;103144;-75
2021/07/17 04:39:58;;;;;;;16.97;13.20;;;;;;;20.57;78.55;100079.17;153944;1101;103214;-76
2021/07/17 04:43:03;;;;;;;15.10;12.13;;;;;;;20.56;78.31;100081.06;153871;1101;103218;-75
2021/07/17 04:46:08;;;;;;;14.73;12.13;;;;;;;20.60;78.35;100086.90;154062;1101;103125;-75
2021/07/17 04:49:13;;;;;;;13.20;11.80;;;;;;;20.55;79.22;100078.56;153908;1101;103192;-76
2021/07/17 04:52:18;;;;;;;13.37;11.40;;;;;;;20.61;78.80;100074.98;153990;1101;103071;-75
2021/07/17 04:55:23;;;;;;;13.80;12.30;;;;;;;20.73;78.59;100080.52;153962;1101;103128;-75
2021/07/17 04:58:28;;;;;;;14.90;12.03;;;;;;;20.90;78.68;100080.74;153957;1101;103313;-76
2021/07/17 05:01:33;;;;;;;17.80;12.63;;;;;;;21.06;78.57;100076.63;153918;1101;103150;-75
2021/07/17 05:04:38;;;;;;;13.75;11.45;;;;;;;21.27;78.34;100083.47;154267;1098;103192;-76
2021/07/17 05:07:43;;;;;;;13.93;12.07;;;;;;;21.43;78.30;100076.58;154312;1099;103125;-76
2021/07/17 05:10:49;;;;;;;15.47;12.00;;;;;;;21.67;78.03;100074.80;154365;1100;103192;-76
2021/07/17 05:13:54;;;;;;;11.90;10.57;;;;;;;22.02;78.00;100083.08;154017;1099;103294;-76
2021/07/17 05:16:59;;;;;;;14.50;11.10;;;;;;;22.23;77.29;100080.84;153956;1093;103130;-76
2021/07/17 05:20:06;;;;;;;13.70;12.17;;;;;;;22.39;76.68;100076.67;154027;1101;103192;-76
2021/07/17 05:23:12;;;;;;;14.80;12.17;;;;;;;22.54;76.53;100079.75;154004;1101;103115;-75
2021/07/17 05:26:17;;;;;;;16.60;13.70;;;;;;;22.63;76.10;100089.18;153966;1101;103148;-74
2021/07/17 05:29:22;;;;;;;16.10;12.80;;;;;;;22.40;76.06;100083.74;153962;1101;103298;-74
2021/07/17 05:32:27;;;;;;;14.03;12.53;;;;;;;22.25;76.11;100082.33;153979;1101;103156;-76
2021/07/17 05:35:32;;;;;;;13.53;12.13;;;;;;;22.29;76.88;100080.79;153971;1094;103240;-75
2021/07/17 05:38:37;;;;;;;13.03;11.73;;;;;;;22.41;76.77;100069.92;153918;1101;103186;-76
2021/07/17 05:41:42;;;;;;;12.27;10.97;;;;;;;22.60;76.46;100080.70;154012;1101;103149;-76
2021/07/17 05:44:47;;;;;;;15.90;13.53;;;;;;;22.86;76.28;100080.17;153958;1101;103288;-74
2021/07/17 05:47:52;;;;;;;13.37;11.67;;;;;;;23.09;76.08;100082.06;154076;1093;103160;-72
2021/07/17 05:50:57;;;;;;;14.45;12.93;;;;;;;23.08;75.56;100088.59;154078;1093;103190;-74
2021/07/17 05:54:02;;;;;;;16.13;13.53;;;;;;;23.06;75.71;100089.91;153947;1093;103134;-73
2021/07/17 05:57:08;;;;;;;16.43;13.80;;;;;;;23.01;75.68;100098.73;153956;1101;103107;-73
2021/07/17 06:00:19;;;;;;;15.53;12.27;;;;;;;23.02;75.44;100103.13;154030;1101;103297;-70
2021/07/17 06:03:25;;;;;;;12.60;11.30;;;;;;;23.10;75.78;100104.69;154006;1101;103120;-72
2021/07/17 06:06:30;;;;;;;17.03;12.70;;;;;;;23.19;75.52;100096.95;153999;1093;103141;-71
2021/07/17 06:09:35;;;;;;;15.97;13.57;;;;;;;23.37;75.75;100101.43;154023;1101;103103;-71
2021/07/17 06:12:41;;;;;;;15.83;13.53;;;;;;;23.41;75.29;100095.25;154041;1093;103246;-73
2021/07/17 06:15:46;;;;;;;16.23;12.60;;;;;;;23.44;75.10;100102.95;154138;1093;103586;-71
2021/07/17 06:18:51;;;;;;;17.17;11.60;;;;;;;23.55;74.90;100103.13;154079;1101;103125;-72
2021/07/17 06:21:56;;;;;;;14.13;11.53;;;;;;;23.48;75.05;100097.81;154009;1094;103220;-72
2021/07/17 06:25:01;;;;;;;15.30;11.63;;;;;;;23.45;75.00;100098.31;153950;1101;103247;-73
2021/07/17 06:28:06;;;;;;;13.13;11.07;;;;;;;23.48;74.80;100098.66;153985;1101;103104;-71
2021/07/17 06:31:11;;;;;;;16.37;10.63;;;;;;;23.37;74.33;100091.36;153968;1101;103316;-72
2021/07/17 06:34:16;;;;;;;13.07;10.00;;;;;;;23.23;74.36;100095.41;154020;1101;103202;-71
2021/07/17 06:37:21;;;;;;;11.83;9.70;;;;;;;23.15;74.88;100101.23;153828;1093;103224;-71
2021/07/17 06:40:26;;;;;;;12.00;10.10;;;;;;;23.22;74.92;100104.66;154178;1099;103138;-73
2021/07/17 06:43:32;;;;;;;14.07;10.67;;;;;;;23.25;74.54;100105.01;154413;1093;103183;-73
2021/07/17 06:46:37;;;;;;;11.00;9.00;;;;;;;23.30;75.06;100096.92;154675;1098;103285;-73
2021/07/17 06:49:42;;;;;;;11.33;9.23;;;;;;;23.38;74.64;100098.44;154382;1098;103147;-74
2021/07/17 06:52:47;;;;;;;13.57;9.83;;;;;;;23.39;74.22;100089.22;154287;1094;103547;-76
2021/07/17 06:55:52;;;;;;;12.63;9.53;;;;;;;23.37;74.87;100088.63;154354;1098;103583;-74
2021/07/17 06:58:57;;;;;;;13.07;8.73;;;;;;;23.48;74.52;100081.48;154333;1091;103227;-74
2021/07/17 07:02:03;;;;;;;14.17;8.03;;;;;;;23.54;74.66;100083.25;154414;1098;103187;-73
2021/07/17 07:05:11;;;;;;;14.27;8.50;;;;;;;23.66;73.72;100080.47;154132;1093;103145;-74
2021/07/17 07:08:16;;;;;;;10.27;8.10;;;;;;;23.75;73.72;100081.73;154351;1098;103096;-75
2021/07/17 07:11:21;;;;;;;9.73;7.37;;;;;;;23.90;74.49;100079.33;154314;1099;103110;-75
2021/07/17 07:14:26;;;;;;;11.50;8.23;;;;;;;23.96;73.76;100080.23;154405;1098;103101;-77
2021/07/17 07:17:31;;;;;;;13.57;7.90;;;;;;;24.05;73.91;100075.20;154316;1093;103272;-78
2021/07/17 07:20:37;;;;;;;11.37;7.33;;;;;;;24.15;73.68;100080.81;154426;1098;103147;-76
2021/07/17 07:23:42;;;;;;;12.43;7.53;;;;;;;24.29;72.46;100079.42;154008;1101;103212;-74
2021/07/17 07:26:47;;;;;;;9.60;6.90;;;;;;;24.33;73.49;100087.09;153966;1093;103120;-76
2021/07/17 07:29:52;;;;;;;12.05;7.20;;;;;;;24.33;72.71;100078.91;154083;1101;103144;-75
2021/07/17 07:32:57;;;;;;;11.07;7.63;;;;;;;24.25;71.86;100093.78;153990;1101;103269;-73
2021/07/17 07:36:02;;;;;;;15.67;8.47;;;;;;;24.26;72.96;100092.72;154038;1101;103195;-71
2021/07/17 07:39:07;;;;;;;9.37;6.90;;;;;;;24.42;71.75;100099.23;153789;1101;103113;-71
2021/07/17 07:42:12;;;;;;;9.20;7.40;;;;;;;24.38;72.29;100079.00;153809;1101;103118;-72
2021/07/17 07:45:18;;;;;;;9.60;6.70;;;;;;;24.56;71.47;100100.60;153844;1101;103125;-72
2021/07/17 07:48:23;;;;;;;7.70;6.90;;;;;;;24.56;71.47;100108.78;154087;1095;103278;-72
2021/07/17 07:51:28;;;;;;;10.97;6.63;;;;;;;24.66;72.04;100113.56;154023;1096;103195;-73
2021/07/17 07:54:33;;;;;;;13.10;7.13;;;;;;;24.79;71.38;100112.38;154037;1101;103195;-73
2021/07/17 07:57:38;;;;;;;11.37;7.27;;;;;;;24.82;71.47;100115.43;153992;1101;103112;-72
2021/07/17 08:00:43;;;;;;;10.33;6.30;;;;;;;24.97;71.88;100123.02;154124;1101;103313;-71
2021/07/17 08:03:48;;;;;;;10.23;7.00;;;;;;;25.14;71.73;100122.16;154247;1101;103328;-74
2021/07/17 08:06:53;;;;;;;12.23;7.43;;;;;;;25.16;70.23;100122.73;154023;1101;103150;-72
2021/07/17 08:09:58;;;;;;;11.20;7.40;;;;;;;25.18;70.12;100137.77;154027;1101;103103;-72
2021/07/17 08:13:03;;;;;;;11.13;6.27;;;;;;;25.22;69.94;100133.48;154073;1101;103125;-73
2021/07/17 08:16:10;;;;;;;11.10;6.53;;;;;;;25.32;70.31;100131.97;154301;1101;103576;-69
2021/07/17 08:19:15;;;;;;;11.10;7.47;;;;;;;25.46;70.07;100123.15;154329;1101;103134;-72
2021/07/17 08:22:20;;;;;;;10.33;6.37;;;;;;;25.57;69.86;100128.72;155707;1101;103199;-73
2021/07/17 08:25:25;;;;;;;10.00;7.33;;;;;;;25.61;69.71;100129.86;154013;1101;103102;-74
2021/07/17 08:28:30;;;;;;;9.97;7.07;;;;;;;25.71;70.39;100126.41;154162;1101;103128;-74
2021/07/17 08:31:35;;;;;;;11.17;6.73;;;;;;;25.81;70.10;100119.16;154038;1101;103220;-73
2021/07/17 08:34:40;;;;;;;10.90;6.70;;;;;;;25.89;69.92;100119.78;154035;1094;103675;-72
2021/07/17 08:37:45;;;;;;;7.23;6.50;;;;;;;26.06;70.07;100128.73;154060;1101;103183;-69
2021/07/17 08:40:55;;;;;;;9.90;6.75;;;;;;;26.21;68.34;100134.34;153792;1093;103192;-69
2021/07/17 08:44:00;;;;;;;10.43;7.40;;;;;;;26.25;69.52;100126.42;153812;1094;103130;-70
2021/07/17 08:47:07;;;;;;;9.30;7.43;;;;;;;26.27;67.37;100132.48;154043;1093;103192;-68
2021/07/17 08:50:15;;;;;;;13.30;7.23;;;;;;;26.30;68.54;100120.19;153841;1093;103317;-68
2021/07/17 08:53:21;;;;;;;10.13;7.37;;;;;;;26.32;68.83;100115.27;153979;1093;103261;-68
2021/07/17 08:56:27;;;;;;;11.07;7.03;;;;;;;26.36;68.47;100119.13;153837;1101;103215;-69
2021/07/17 08:59:32;;;;;;;11.60;6.97;;;;;;;26.34;67.56;100110.36;153848;1101;103220;-69
2021/07/17 09:02:40;;;;;;;12.57;6.63;;;;;;;26.34;67.24;100105.71;153852;1101;103275;-67
2021/07/17 09:05:48;;;;;;;8.13;6.47;;;;;;;26.45;67.97;100101.16;153858;1101;103262;-66
2021/07/17 09:08:53;;;;;;;10.30;6.75;;;;;;;26.55;68.14;100100.41;153843;1093;103133;-75
2021/07/17 09:11:59;;;;;;;8.55;6.60;;;;;;;26.62;66.19;100103.77;153973;1101;103116;-67
2021/07/17 09:15:06;;;;;;;11.97;7.03;;;;;;;26.60;66.49;100105.95;153879;1094;103554;-67
2021/07/17 09:18:12;;;;;;;9.00;6.83;;;;;;;26.58;67.19;100103.44;153859;1101;103193;-80
2021/07/17 09:21:22;;;;;;;11.23;6.40;;;;;;;26.62;67.37;100092.83;154041;1093;103493;-68
2021/07/17 09:24:27;;;;;;;9.50;6.35;;;;;;;26.72;66.86;100090.14;153894;1101;103129;-68
2021/07/17 09:27:32;;;;;;;9.47;6.80;;;;;;;26.71;65.58;100087.66;153880;1094;103149;-68
2021/07/17 09:30:38;;;;;;;10.13;6.60;;;;;;;26.76;66.34;100084.97;153787;1093;103125;-68
2021/07/17 09:33:43;;;;;;;11.20;6.47;;;;;;;26.87;66.91;100096.78;153870;1101;103196;-67
2021/07/17 09:36:57;;;;;;;9.30;6.38;;;;;;;26.94;65.36;100080.95;153806;1093;103175;-69
2021/07/17 09:40:02;;;;;;;8.77;6.60;;;;;;;26.93;65.72;100077.40;154116;1101;103124;-67
2021/07/17 09:43:07;;;;;;;9.87;6.83;;;;;;;26.95;65.70;100075.22;153788;1093;103249;-68
2021/07/17 09:46:22;;;;;;;8.80;5.90;;;;;;;26.98;65.53;100077.44;153834;1093;103124;-68
2021/07/17 09:49:28;;;;;;;7.97;6.13;;;;;;;27.03;63.88;100074.70;153906;1094;103139;-68
2021/07/17 09:52:43;;;;;;;10.30;6.30;;;;;;;27.04;63.61;100072.77;153804;1093;103494;-68
2021/07/17 09:55:48;;;;;;;8.37;5.70;;;;;;;27.05;62.92;100070.88;153879;1094;103099;-67
2021/07/17 09:58:54;;;;;;;9.23;5.60;;;;;;;27.08;63.86;100070.33;153815;1101;103219;-68
2021/07/17 10:01:59;;;;;;;10.30;6.40;;;;;;;27.15;64.04;100062.70;153798;1094;103263;-67
2021/07/17 10:05:06;;;;;;;6.27;5.63;;;;;;;27.20;62.51;100062.73;153816;1094;103212;-66
2021/07/17 10:08:15;;;;;;;8.97;5.93;;;;;;;27.19;63.00;100072.02;153842;1094;103222;-66
2021/07/17 10:11:24;;;;;;;6.95;5.85;;;;;;;27.22;63.06;100060.55;153940;1093;103199;-66
2021/07/17 10:14:33;;;;;;;7.20;5.73;;;;;;;27.34;63.09;100069.38;153816;1101;103189;-67
2021/07/17 10:17:39;;;;;;;10.17;5.63;;;;;;;27.43;63.66;100072.42;153958;1101;103490;-67
2021/07/17 10:20:44;;;;;;;8.25;6.20;;;;;;;27.56;63.40;100054.63;153881;1101;103249;-68
2021/07/17 10:23:50;;;;;;;10.97;6.20;;;;;;;27.65;62.88;100068.64;153890;1094;103301;-70
2021/07/17 10:26:56;;;;;;;10.30;5.80;;;;;;;27.66;63.38;100060.14;153970;1101;103215;-67
2021/07/17 10:30:01;;;;;;;7.67;5.67;;;;;;;27.73;63.30;100060.69;153850;1101;103195;-66
2021/07/17 10:33:07;;;;;;;9.50;5.90;;;;;;;27.76;62.31;100054.67;153808;1101;103115;-67
2021/07/17 10:36:16;;;;;;;9.80;5.80;;;;;;;27.86;62.35;100061.27;153878;1101;103192;-68
2021/07/17 10:39:25;;;;;;;8.80;6.00;;;;;;;27.98;62.75;100046.23;153824;1101;103269;-67
2021/07/17 10:42:32;;;;;;;7.73;5.90;;;;;;;28.03;61.65;100050.88;153907;1101;103139;-68
2021/07/17 10:45:39;;;;;;;8.87;5.47;;;;;;;28.00;61.92;100054.16;153882;1101;103195;-67
2021/07/17 10:48:54;;;;;;;9.23;6.17;;;;;;;27.96;61.37;100048.39;153819;1101;103195;-67
2021/07/17 10:52:01;;;;;;;8.83;5.90;;;;;;;28.07;61.93;100049.23;153855;1093;103203;-68
2021/07/17 10:55:32;;;;;;;9.20;6.00;;;;;;;28.13;59.63;100055.55;153826;1101;103282;-67
2021/07/17 10:58:40;;;;;;;8.07;5.80;;;;;;;28.17;61.77;100053.89;153867;1101;103115;-67
2021/07/17 11:02:09;;;;;;;11.17;5.90;;;;;;;28.26;60.52;100051.43;153814;1101;103122;-71
2021/07/17 11:05:33;;;;;;;8.65;6.00;;;;;;;28.31;60.61;100045.91;153838;1101;103128;-68
2021/07/17 11:08:39;;;;;;;8.10;5.73;;;;;;;28.40;59.77;100057.98;153902;1101;103246;-68
2021/07/17 11:11:44;;;;;;;10.60;5.80;;;;;;;28.46;60.38;100043.15;153843;1093;103365;-68
2021/07/17 11:14:50;;;;;;;7.63;5.30;;;;;;;28.52;59.88;100041.25;153854;1101;103580;-67
2021/07/17 11:17:56;;;;;;;5.90;5.30;;;;;;;28.68;60.80;100040.13;153804;1101;103241;-68
2021/07/17 11:21:03;;;;;;;7.23;6.53;;;;;;;28.85;60.08;100036.21;154079;1101;103047;-68
2021/07/17 11:24:11;;;;;;;9.80;6.10;;;;;;;28.98;59.47;100041.95;154029;1101;103187;-68
2021/07/17 11:27:18;;;;;;;7.60;6.10;;;;;;;29.09;59.99;100036.41;153826;1101;103270;-68
2021/07/17 11:30:25;;;;;;;8.37;5.80;;;;;;;29.19;59.55;100036.38;153875;1093;103138;-67
2021/07/17 11:33:30;;;;;;;9.83;6.07;;;;;;;29.17;58.97;100030.34;153977;1101;103242;-68
2021/07/17 11:36:35;;;;;;;7.40;6.20;;;;;;;29.09;59.31;100025.41;153817;1093;103191;-68
2021/07/17 11:39:43;;;;;;;7.53;5.77;;;;;;;29.11;59.42;100021.27;153831;1094;103236;-68
2021/07/17 11:42:48;;;;;;;9.55;5.60;;;;;;;29.23;59.54;100023.70;153895;1101;103241;-68
2021/07/17 11:45:53;;;;;;;8.37;6.10;;;;;;;29.30;59.02;100017.92;153880;1094;103556;-67
2021/07/17 11:49:05;;;;;;;9.05;5.90;;;;;;;29.32;58.87;100013.77;153845;1094;103107;-67
2021/07/17 11:52:12;;;;;;;13.10;6.45;;;;;;;29.23;57.17;100014.66;153812;1101;103604;-72
2021/07/17 11:55:19;;;;;;;8.85;6.60;;;;;;;28.96;58.29;100010.36;153833;1094;103620;-68
2021/07/17 11:58:24;;;;;;;8.10;6.20;;;;;;;28.87;58.83;100012.88;153823;1101;103553;-67
2021/07/17 12:01:29;;;;;;;9.77;6.20;;;;;;;28.99;58.26;100001.56;153871;1093;103172;-68
2021/07/17 12:04:36;;;;;;;9.35;6.45;;;;;;;29.11;58.78;99995.73;153793;1101;103145;-68
2021/07/17 12:07:42;;;;;;;8.33;5.93;;;;;;;29.18;58.91;99985.30;153834;1101;103119;-67
2021/07/17 12:10:47;;;;;;;13.63;6.80;;;;;;;29.23;56.59;99982.49;153820;1101;103141;-68
2021/07/17 12:13:52;;;;;;;10.13;6.57;;;;;;;29.22;57.96;99978.13;153819;1093;103221;-68
2021/07/17 12:16:58;;;;;;;9.10;6.20;;;;;;;29.20;55.36;99980.33;153829;1094;103147;-67
2021/07/17 12:20:09;;;;;;;7.97;6.37;;;;;;;29.18;57.33;99979.80;153857;1101;103140;-68
2021/07/17 12:23:15;;;;;;;9.60;6.45;;;;;;;29.24;54.08;99973.16;153869;1093;103200;-66
2021/07/17 12:26:21;;;;;;;7.45;5.90;;;;;;;29.29;57.18;99964.89;153945;1101;103211;-69
2021/07/17 12:29:26;;;;;;;9.80;6.33;;;;;;;29.44;56.37;99963.94;153876;1101;103269;-68
2021/07/17 12:32:31;;;;;;;7.47;6.33;;;;;;;29.55;56.88;99961.95;153837;1101;103126;-67
2021/07/17 12:35:36;;;;;;;11.37;6.97;;;;;;;29.62;57.07;99962.45;153892;1093;103046;-67
2021/07/17 12:38:44;;;;;;;9.25;6.40;;;;;;;29.66;56.54;99954.42;153790;1101;103093;-69
2021/07/17 12:41:50;;;;;;;10.35;6.15;;;;;;;29.65;55.73;99939.86;153878;1101;103230;-70
2021/07/17 12:44:58;;;;;;;8.00;6.37;;;;;;;29.63;55.74;99944.83;153955;1094;103187;-73
2021/07/17 12:48:04;;;;;;;8.23;6.37;;;;;;;29.63;56.45;99942.08;154039;1101;103139;-74
2021/07/17 12:51:14;;;;;;;7.67;6.27;;;;;;;29.72;56.29;99940.39;154036;1101;103245;-74
2021/07/17 12:54:22;;;;;;;7.53;6.00;;;;;;;29.83;56.55;99941.13;153946;1093;103157;-75
2021/07/17 12:57:27;;;;;;;10.37;6.90;;;;;;;29.89;55.40;99945.47;154016;1101;103199;-75
2021/07/17 13:00:32;;;;;;;9.97;6.37;;;;;;;29.93;55.70;99934.71;153975;1101;103221;-74
2021/07/17 13:03:38;;;;;;;8.37;6.60;;;;;;;29.97;56.14;99934.92;154153;1101;103138;-70
2021/07/17 13:06:55;;;;;;;8.57;6.83;;;;;;;29.95;53.00;99938.80;153927;1094;103231;-73
2021/07/17 13:10:04;;;;;;;9.13;6.77;;;;;;;29.83;54.54;99940.29;153990;1101;103225;-76
2021/07/17 13:13:10;;;;;;;9.33;6.67;;;;;;;29.77;54.20;99931.27;153996;1101;103148;-75
2021/07/17 13:16:24;;;;;;;8.13;6.90;;;;;;;29.69;55.07;99929.92;154001;1101;103240;-75
2021/07/17 13:19:29;;;;;;;7.43;6.70;;;;;;;29.59;54.04;99924.52;154031;1101;103240;-76
2021/07/17 13:22:40;;;;;;;10.40;6.77;;;;;;;29.58;55.01;99917.37;153999;1101;103195;-72
2021/07/17 13:25:43;;;;;;;;;;;;;;;29.57;53.84;99915.74;154057;1101;103154;-74
2021/07/17 13:28:49;;;;;;;9.17;6.17;;;;;;;29.51;54.94;99922.40;154023;1101;103138;-72
2021/07/17 13:31:58;;;;;;;8.37;6.70;;;;;;;29.52;54.42;99919.37;153974;1101;103186;-70
2021/07/17 13:35:19;;;;;;;7.80;6.70;;;;;;;29.50;54.85;99913.31;154089;1093;103147;-72
2021/07/17 13:38:24;;;;;;;8.77;7.17;;;;;;;29.60;54.03;99917.09;154029;1094;103105;-75
2021/07/17 13:41:29;;;;;;;10.23;7.00;;;;;;;29.58;52.58;99909.13;153995;1094;103221;-73
2021/07/17 13:44:34;;;;;;;7.73;6.80;;;;;;;29.54;53.41;99906.16;154120;1101;103256;-72
2021/07/17 13:47:41;;;;;;;8.23;6.60;;;;;;;29.48;53.05;99906.47;153996;1101;103279;-76
2021/07/17 13:50:48;;;;;;;12.00;6.50;;;;;;;29.56;53.90;99903.94;154087;1101;103125;-75
2021/07/17 13:54:04;;;;;;;8.73;6.40;;;;;;;29.65;52.37;99895.87;154035;1101;103160;-74
2021/07/17 13:57:16;;;;;;;9.80;6.83;;;;;;;29.70;52.35;99886.77;154012;1101;103219;-72